Time;durP1;ratioP1;P1;durP2;ratioP2;P2;SDS_P1;SDS_P2;PMS_P1;PMS_P2;Temp;Humidity;BMP_temperature;BMP_pressure;BME280_temperature;BME280_humidity;BME280_pressure;Samples;Min_cycle;Max_cycle;Signal;HPM_P1;HPM_P2
2023/02/20 00:01:23;;;;;;;6.03;2.85;;;7.90;99.90;;;;;;5015791;28;20030;-70
2023/02/20 00:03:48;;;;;;;8.20;2.60;;;7.90;99.90;;;;;;5012206;28;20084;-71
2023/02/20 00:06:14;;;;;;;7.80;2.97;;;7.90;99.90;;;;;;5019582;28;20592;-70
2023/02/20 00:08:40;;;;;;;6.10;2.70;;;7.80;99.90;;;;;;5019852;28;20060;-73
2023/02/20 00:11:06;;;;;;;7.78;2.72;;;7.80;99.90;;;;;;5011112;28;20121;-70
2023/02/20 00:13:31;;;;;;;13.18;2.63;;;7.90;99.90;;;;;;5018774;28;20049;-70
2023/02/20 00:15:57;;;;;;;7.97;3.17;;;7.80;99.90;;;;;;4998166;28;20021;-70
2023/02/20 00:18:22;;;;;;;6.05;2.45;;;7.80;99.90;;;;;;5019918;28;20534;-71
2023/02/20 00:20:48;;;;;;;7.43;2.50;;;7.80;99.90;;;;;;5014771;28;20041;-70
2023/02/20 00:23:14;;;;;;;8.77;3.17;;;7.80;99.90;;;;;;5021588;28;20470;-70
2023/02/20 00:25:39;;;;;;;9.93;3.63;;;7.80;99.90;;;;;;5012599;28;20061;-73
2023/02/20 00:28:05;;;;;;;7.80;3.60;;;7.90;99.90;;;;;;5018248;28;20517;-70
2023/02/20 00:30:30;;;;;;;6.75;3.13;;;7.80;99.90;;;;;;5021885;28;20473;-69
2023/02/20 00:32:57;;;;;;;6.53;3.38;;;7.90;99.90;;;;;;5019572;28;20215;-69
2023/02/20 00:35:25;;;;;;;7.97;3.33;;;8.00;99.90;;;;;;5012915;28;20478;-69
2023/02/20 00:37:52;;;;;;;7.78;3.10;;;8.00;99.90;;;;;;5024044;28;20447;-70
2023/02/20 00:40:19;;;;;;;10.13;3.15;;;8.00;99.90;;;;;;5018056;28;20048;-70
2023/02/20 00:42:45;;;;;;;6.57;2.70;;;8.00;99.90;;;;;;5011117;28;20061;-70
2023/02/20 00:45:12;;;;;;;7.60;3.10;;;8.00;99.90;;;;;;5025744;28;20445;-70
2023/02/20 00:47:38;;;;;;;6.53;3.00;;;8.00;99.90;;;;;;5017852;28;20034;-73
2023/02/20 00:50:05;;;;;;;6.70;3.00;;;8.00;99.90;;;;;;5012786;28;20021;-70
2023/02/20 00:52:31;;;;;;;9.40;3.17;;;8.00;99.90;;;;;;5022068;28;20030;-70
2023/02/20 00:54:56;;;;;;;5.88;2.70;;;8.00;99.90;;;;;;5017644;28;20099;-70
2023/02/20 00:57:22;;;;;;;7.15;2.88;;;8.00;99.90;;;;;;5011851;28;20037;-69
2023/02/20 00:59:47;;;;;;;9.75;3.28;;;8.00;99.90;;;;;;5011689;28;20109;-70
2023/02/20 01:02:13;;;;;;;5.82;3.47;;;8.00;99.90;;;;;;5028402;28;20029;-69
2023/02/20 01:04:39;;;;;;;10.13;3.20;;;8.00;99.90;;;;;;5019382;28;20442;-73
2023/02/20 01:07:04;;;;;;;9.13;2.85;;;8.00;99.90;;;;;;5024014;28;20034;-70
2023/02/20 01:09:30;;;;;;;6.82;2.88;;;8.00;99.90;;;;;;5021515;28;20045;-69
2023/02/20 01:11:55;;;;;;;7.47;2.70;;;7.90;99.90;;;;;;5015085;28;20046;-70
2023/02/20 01:14:21;;;;;;;4.85;2.50;;;7.80;99.90;;;;;;4993543;28;20033;-69
2023/02/20 01:16:50;;;;;;;4.60;2.50;;;7.80;99.90;;;;;;5010985;28;20087;-70
2023/02/20 01:19:16;;;;;;;13.02;2.90;;;7.60;99.90;;;;;;5011226;28;20368;-70
2023/02/20 01:21:42;;;;;;;5.18;2.50;;;7.70;99.90;;;;;;5019661;28;20026;-70
2023/02/20 01:24:07;;;;;;;9.75;3.42;;;7.50;99.90;;;;;;5011397;28;20033;-70
2023/02/20 01:26:35;;;;;;;5.85;3.00;;;7.50;99.90;;;;;;5014084;28;20033;-70
2023/02/20 01:29:01;;;;;;;7.93;3.00;;;7.50;99.90;;;;;;5018221;28;20851;-69
2023/02/20 01:31:26;;;;;;;14.63;3.63;;;7.60;99.90;;;;;;5020749;28;20026;-70
2023/02/20 01:33:52;;;;;;;7.22;3.00;;;7.50;99.90;;;;;;5003293;28;20036;-69
2023/02/20 01:36:18;;;;;;;7.70;2.92;;;7.40;99.90;;;;;;5023587;28;20064;-69
2023/02/20 01:38:44;;;;;;;10.18;3.22;;;;;;;;;;5022878;28;20057;-70
2023/02/20 01:41:10;;;;;;;8.38;3.25;;;;;;;;;;5000152;28;20434;-70
2023/02/20 01:43:36;;;;;;;9.35;3.17;;;7.30;99.90;;;;;;5016958;28;20044;-69
2023/02/20 01:46:21;;;;;;;6.05;2.92;;;;;;;;;;5006758;28;20045;-69
2023/02/20 01:48:47;;;;;;;8.45;3.08;;;;;;;;;;5018010;28;20037;-70
2023/02/20 01:51:13;;;;;;;4.68;2.50;;;;;;;;;;5017438;28;20028;-70
2023/02/20 01:53:39;;;;;;;6.82;3.00;;;;;;;;;;5013645;28;20037;-73
2023/02/20 01:56:07;;;;;;;9.07;3.05;;;;;;;;;;5025709;28;20087;-70
2023/02/20 01:58:36;;;;;;;6.03;2.92;;;;;;;;;;5019838;28;20068;-69
2023/02/20 02:01:03;;;;;;;6.88;2.90;;;;;;;;;;5020720;28;20036;-70
2023/02/20 02:03:31;;;;;;;5.90;2.72;;;;;;;;;;5011032;28;20072;-69
2023/02/20 02:06:01;;;;;;;9.13;2.70;;;;;;;;;;5013012;28;20034;-70
2023/02/20 02:08:27;;;;;;;9.98;3.72;;;;;;;;;;5011945;28;20084;-70
2023/02/20 02:11:03;;;;;;;11.63;3.38;;;;;;;;;;5026173;28;20029;-70
2023/02/20 02:13:30;;;;;;;5.03;2.47;;;6.70;99.90;;;;;;5014665;28;20464;-70
2023/02/20 02:16:10;;;;;;;5.43;2.40;;;6.70;99.90;;;;;;5011511;28;20037;-70
2023/02/20 02:19:03;;;;;;;4.75;2.60;;;6.60;99.90;;;;;;5007166;28;20034;-70
2023/02/20 02:21:29;;;;;;;8.65;2.50;;;6.50;99.90;;;;;;5020762;28;20034;-70
2023/02/20 02:24:19;;;;;;;7.63;2.75;;;6.40;99.90;;;;;;5025371;28;20108;-71
2023/02/20 02:27:04;;;;;;;;;;;6.50;99.90;;;;;;5017851;28;20501;-71
2023/02/20 02:29:48;;;;;;;7.35;2.63;;;6.50;99.90;;;;;;5015004;28;19944;-71
2023/02/20 02:32:35;;;;;;;6.68;2.45;;;6.60;99.90;;;;;;5016236;28;20022;-71
2023/02/20 02:35:17;;;;;;;5.70;2.60;;;6.60;99.90;;;;;;5027360;28;20034;-70
2023/02/20 02:37:54;;;;;;;6.57;2.90;;;6.70;99.90;;;;;;5014441;28;20145;-71
2023/02/20 02:40:38;;;;;;;7.90;2.85;;;6.70;99.90;;;;;;4996683;28;20037;-69
2023/02/20 02:43:18;;;;;;;6.63;2.90;;;6.80;99.90;;;;;;5022978;28;20083;-69
2023/02/20 02:46:03;;;;;;;9.65;3.90;;;6.90;99.90;;;;;;5031640;28;20429;-68
2023/02/20 02:48:48;;;;;;;5.18;2.80;;;6.90;99.90;;;;;;5025272;28;20381;-69
2023/02/20 02:51:25;;;;;;;5.22;2.05;;;7.00;99.90;;;;;;5016545;28;20026;-68
2023/02/20 02:54:10;;;;;;;8.60;2.38;;;6.90;99.90;;;;;;5014764;28;20029;-70
2023/02/20 02:56:38;;;;;;;5.80;2.75;;;6.90;99.90;;;;;;5021862;28;20044;-68
2023/02/20 02:59:08;;;;;;;5.53;2.50;;;6.90;99.90;;;;;;5015693;28;20065;-70
2023/02/20 03:01:41;;;;;;;7.70;2.55;;;6.90;99.90;;;;;;5018354;28;20056;-69
2023/02/20 03:04:10;;;;;;;8.57;2.88;;;7.00;99.90;;;;;;5026287;28;20034;-70
2023/02/20 03:06:41;;;;;;;7.15;2.83;;;6.90;99.90;;;;;;5016673;28;20463;-68
2023/02/20 03:09:12;;;;;;;6.93;2.72;;;7.00;99.90;;;;;;5014598;28;20050;-69
2023/02/20 03:11:39;;;;;;;8.63;3.25;;;7.00;99.90;;;;;;5013705;28;20475;-73
2023/02/20 03:17:04;;;;;;;7.05;2.45;;;7.00;99.90;;;;;;5012963;28;20092;-68
2023/02/20 03:19:39;;;;;;;9.40;2.60;;;7.00;99.90;;;;;;5009584;28;20042;-71
2023/02/20 03:22:15;;;;;;;6.20;2.65;;;7.00;99.90;;;;;;5015929;28;20041;-69
2023/02/20 03:24:55;;;;;;;5.93;2.33;;;7.00;99.90;;;;;;5012938;28;20432;-72
2023/02/20 03:27:29;;;;;;;;;;;7.00;99.90;;;;;;5024014;28;20036;-69
2023/02/20 03:29:57;;;;;;;10.27;3.25;;;7.00;99.90;;;;;;5021003;28;20309;-71
2023/02/20 03:43:32;;;;;;;9.38;3.15;;;7.00;99.90;;;;;;5019727;28;20079;-69
2023/02/20 03:46:10;;;;;;;5.30;2.55;;;7.00;99.90;;;;;;5011963;28;20030;-70
2023/02/20 03:48:46;;;;;;;8.52;3.20;;;7.00;99.90;;;;;;5013043;28;20064;-69
2023/02/20 03:51:12;;;;;;;7.75;3.30;;;7.00;99.90;;;;;;5003300;28;20032;-69
2023/02/20 03:53:39;;;;;;;11.15;3.33;;;7.00;99.90;;;;;;5010849;28;20390;-73
2023/02/20 03:56:10;;;;;;;5.88;2.70;;;7.10;99.90;;;;;;5020625;28;20021;-69
2023/02/20 03:58:41;;;;;;;8.55;2.75;;;7.10;99.90;;;;;;5023710;28;20453;-69
2023/02/20 04:01:10;;;;;;;7.90;2.40;;;7.10;99.90;;;;;;5013809;28;20045;-69
2023/02/20 04:03:41;;;;;;;9.98;2.70;;;7.00;99.90;;;;;;5012755;28;20025;-69
2023/02/20 04:06:10;;;;;;;6.80;2.65;;;7.00;99.90;;;;;;5022721;28;20029;-69
2023/02/20 04:08:53;;;;;;;6.53;2.53;;;7.00;99.90;;;;;;5024994;28;20049;-69
2023/02/20 04:11:31;;;;;;;6.13;2.50;;;6.90;99.90;;;;;;5011403;28;20528;-69
2023/02/20 04:13:59;;;;;;;8.68;2.65;;;6.90;99.90;;;;;;5001209;28;20445;-69
2023/02/20 04:16:25;;;;;;;10.75;3.38;;;6.80;99.90;;;;;;4995797;28;20034;-70
2023/02/20 04:18:51;;;;;;;11.75;4.30;;;6.80;99.90;;;;;;4997649;28;20101;-69
2023/02/20 04:21:38;;;;;;;7.22;3.03;;;6.70;99.90;;;;;;5001172;28;20110;-70
2023/02/20 04:24:12;;;;;;;6.53;2.72;;;6.60;99.90;;;;;;5006498;28;20057;-70
2023/02/20 04:26:38;;;;;;;5.15;2.97;;;6.50;99.90;;;;;;4989286;28;21259;-72
2023/02/20 04:29:04;;;;;;;10.25;3.88;;;6.40;99.90;;;;;;5001967;28;20049;-70
2023/02/20 04:31:30;;;;;;;10.68;3.60;;;6.40;99.90;;;;;;4997978;28;20482;-69
2023/02/20 04:33:56;;;;;;;11.57;3.28;;;6.30;99.90;;;;;;4995835;28;20097;-71
2023/02/20 04:36:23;;;;;;;8.60;3.40;;;6.30;99.90;;;;;;5002180;28;20026;-69
2023/02/20 04:38:48;;;;;;;8.48;3.40;;;6.20;99.90;;;;;;4994573;28;20031;-70
2023/02/20 04:41:14;;;;;;;10.18;3.00;;;6.20;99.90;;;;;;5000625;28;20022;-70
2023/02/20 04:43:40;;;;;;;12.43;3.15;;;6.20;99.90;;;;;;4991588;28;20030;-73
2023/02/20 04:46:05;;;;;;;9.65;3.47;;;6.10;99.90;;;;;;5006160;28;20029;-69
2023/02/20 04:48:31;;;;;;;7.28;3.35;;;6.10;99.90;;;;;;5002067;28;20064;-69
2023/02/20 04:50:56;;;;;;;8.50;3.25;;;6.10;99.90;;;;;;4991435;28;20559;-69
2023/02/20 04:53:22;;;;;;;7.43;3.25;;;6.10;99.90;;;;;;4992523;28;20027;-69
2023/02/20 04:55:48;;;;;;;7.35;2.92;;;6.00;99.90;;;;;;4994364;28;20415;-70
2023/02/20 04:58:13;;;;;;;10.05;3.40;;;5.90;99.90;;;;;;4991963;28;20036;-69
2023/02/20 05:00:39;;;;;;;7.82;3.50;;;5.80;99.90;;;;;;4995625;28;20037;-72
2023/02/20 05:03:04;;;;;;;9.20;3.33;;;5.80;99.90;;;;;;4974293;28;20029;-69
2023/02/20 05:05:30;;;;;;;5.95;3.45;;;5.70;99.90;;;;;;4997919;28;20033;-69
2023/02/20 05:07:58;;;;;;;4.68;2.83;;;5.60;99.90;;;;;;4998124;28;20084;-69
2023/02/20 05:10:25;;;;;;;7.10;3.33;;;5.50;99.90;;;;;;4993446;28;20037;-69
2023/02/20 05:12:51;;;;;;;5.57;2.78;;;5.40;99.90;;;;;;5011966;28;20067;-69
2023/02/20 05:15:17;;;;;;;10.20;3.40;;;5.30;99.90;;;;;;5014189;28;20029;-70
2023/02/20 05:17:43;;;;;;;9.93;3.72;;;5.30;99.90;;;;;;5016777;28;20018;-70
2023/02/20 05:20:10;;;;;;;8.77;3.40;;;5.20;99.90;;;;;;5014322;28;20032;-69
2023/02/20 05:22:35;;;;;;;9.32;3.83;;;5.10;99.90;;;;;;5018238;28;20045;-69
2023/02/20 05:25:01;;;;;;;7.07;3.20;;;5.00;99.90;;;;;;5010693;28;20836;-70
2023/02/20 05:27:27;;;;;;;7.63;3.85;;;5.00;99.90;;;;;;5019212;28;20018;-70
2023/02/20 05:29:55;;;;;;;12.27;3.85;;;4.90;99.90;;;;;;5017236;28;20030;-69
2023/02/20 05:32:23;;;;;;;6.68;3.30;;;4.90;99.90;;;;;;5011649;28;20425;-70
2023/02/20 05:34:49;;;;;;;9.68;3.50;;;4.90;99.90;;;;;;5021844;28;20025;-69
2023/02/20 05:37:17;;;;;;;9.77;3.40;;;4.80;99.90;;;;;;5024340;28;20033;-70
2023/02/20 05:39:43;;;;;;;9.07;3.88;;;4.80;99.90;;;;;;5018542;28;20080;-70
2023/02/20 05:42:08;;;;;;;8.57;4.22;;;4.80;99.90;;;;;;5014372;28;20029;-72
2023/02/20 05:44:34;;;;;;;9.93;4.45;;;4.70;99.90;;;;;;5009833;28;20419;-69
2023/02/20 05:47:01;;;;;;;8.48;3.85;;;4.70;99.90;;;;;;5011163;28;20026;-69
2023/02/20 05:49:27;;;;;;;10.45;4.05;;;4.70;99.90;;;;;;5019555;28;20117;-69
2023/02/20 05:51:55;;;;;;;8.27;3.88;;;4.70;99.90;;;;;;5022283;28;20293;-69
2023/02/20 05:54:21;;;;;;;8.82;4.13;;;4.70;99.90;;;;;;5021533;28;20211;-68
2023/02/20 05:56:48;;;;;;;9.20;3.80;;;4.60;99.90;;;;;;5026026;28;20109;-70
2023/02/20 05:59:17;;;;;;;9.23;4.38;;;4.60;99.90;;;;;;5019698;28;20033;-70
2023/02/20 06:01:42;;;;;;;8.43;3.93;;;4.60;99.90;;;;;;5011298;28;20029;-68
2023/02/20 06:04:08;;;;;;;7.95;4.22;;;4.60;99.90;;;;;;5024231;28;20384;-69
2023/02/20 06:06:36;;;;;;;11.07;4.70;;;4.60;99.90;;;;;;5020800;28;20076;-69
2023/02/20 06:09:02;;;;;;;11.55;4.28;;;4.60;99.90;;;;;;5017093;28;20568;-70
2023/02/20 06:11:28;;;;;;;12.27;4.78;;;4.60;99.90;;;;;;5003532;28;20474;-70
2023/02/20 06:13:53;;;;;;;10.82;5.13;;;4.60;99.90;;;;;;5013452;28;20057;-68
2023/02/20 06:16:25;;;;;;;14.05;4.72;;;4.70;99.90;;;;;;5011058;28;20426;-73
2023/02/20 06:18:51;;;;;;;13.30;4.53;;;4.90;99.90;;;;;;5010339;28;20026;-71
2023/02/20 06:21:17;;;;;;;9.13;4.30;;;5.00;99.90;;;;;;4996287;28;20487;-71
2023/02/20 06:23:46;;;;;;;12.07;4.35;;;5.10;99.90;;;;;;5012210;28;20064;-73
2023/02/20 06:26:12;;;;;;;14.13;4.45;;;5.10;99.90;;;;;;5026356;28;20462;-73
2023/02/20 06:28:38;;;;;;;10.30;3.97;;;5.20;99.90;;;;;;5022509;28;20052;-74
2023/02/20 06:31:05;;;;;;;8.68;4.05;;;5.30;99.90;;;;;;5003840;28;20510;-72
2023/02/20 06:33:30;;;;;;;10.05;4.18;;;5.30;99.90;;;;;;5022028;28;20057;-70
2023/02/20 06:35:56;;;;;;;9.02;4.68;;;5.30;99.90;;;;;;5020502;28;20450;-72
2023/02/20 06:38:22;;;;;;;14.13;4.53;;;5.30;99.90;;;;;;5020241;28;20040;-71
2023/02/20 06:40:48;;;;;;;11.65;4.28;;;5.40;99.90;;;;;;5011776;28;20018;-73
2023/02/20 06:43:14;;;;;;;10.43;3.85;;;5.40;99.90;;;;;;5013669;28;20053;-72
2023/02/20 06:45:39;;;;;;;10.20;4.25;;;5.40;99.90;;;;;;4994638;28;20049;-72
2023/02/20 06:48:05;;;;;;;11.52;4.25;;;5.50;99.90;;;;;;5020149;28;20041;-69
2023/02/20 06:50:31;;;;;;;12.35;3.95;;;5.50;99.90;;;;;;4998248;28;20109;-70
2023/02/20 06:52:56;;;;;;;11.65;4.10;;;5.50;99.90;;;;;;5024071;28;20136;-69
2023/02/20 06:55:22;;;;;;;13.80;3.78;;;5.70;99.90;;;;;;4998173;28;20493;-70
2023/02/20 06:57:48;;;;;;;7.72;4.40;;;5.70;99.90;;;;;;5016069;28;20034;-70
2023/02/20 07:00:15;;;;;;;9.43;3.97;;;5.80;99.90;;;;;;5012091;28;20026;-68
2023/02/20 07:02:40;;;;;;;9.90;4.18;;;5.90;99.90;;;;;;5016257;28;20080;-72
2023/02/20 07:05:08;;;;;;;11.05;3.80;;;5.90;99.90;;;;;;5013913;28;20037;-68
2023/02/20 07:07:33;;;;;;;10.50;3.83;;;5.90;99.90;;;;;;5005635;28;20371;-68
2023/02/20 07:10:00;;;;;;;10.20;3.80;;;6.00;99.90;;;;;;5022512;28;20108;-67
2023/02/20 07:12:29;;;;;;;10.60;3.60;;;6.00;99.90;;;;;;5012987;28;20148;-68
2023/02/20 07:14:54;;;;;;;10.18;3.72;;;6.10;99.90;;;;;;5009742;28;20089;-69
2023/02/20 07:17:20;;;;;;;8.20;3.55;;;6.10;99.90;;;;;;5014153;28;20473;-67
2023/02/20 07:19:45;;;;;;;8.15;3.38;;;6.10;99.90;;;;;;5021027;28;20034;-68
2023/02/20 07:22:11;;;;;;;12.38;4.60;;;6.10;99.90;;;;;;5022313;28;20105;-67
2023/02/20 07:24:36;;;;;;;7.88;4.13;;;6.10;99.90;;;;;;5022969;28;20754;-67
2023/02/20 07:27:02;;;;;;;10.40;3.40;;;6.20;99.90;;;;;;5018451;28;20029;-67
2023/02/20 07:29:28;;;;;;;11.30;3.92;;;6.20;99.90;;;;;;5020139;28;20038;-67
2023/02/20 07:31:53;;;;;;;9.95;3.63;;;6.30;99.90;;;;;;5014500;28;20033;-67
2023/02/20 07:34:19;;;;;;;10.32;4.07;;;6.30;99.90;;;;;;5016464;28;20029;-68
2023/02/20 07:36:45;;;;;;;9.65;3.45;;;6.40;99.90;;;;;;5019918;28;20445;-67
2023/02/20 07:39:12;;;;;;;11.93;3.35;;;6.50;99.90;;;;;;5014193;28;20037;-67
2023/02/20 07:41:38;;;;;;;11.10;4.10;;;6.50;99.90;;;;;;5014727;28;20079;-68
2023/02/20 07:44:04;;;;;;;8.00;2.75;;;6.60;99.90;;;;;;5021720;28;20032;-69
2023/02/20 07:46:32;;;;;;;7.70;3.20;;;6.70;99.90;;;;;;5015454;28;20034;-69
2023/02/20 07:49:04;;;;;;;11.27;3.42;;;6.80;99.90;;;;;;5024929;28;20536;-68
2023/02/20 07:51:31;;;;;;;15.90;3.60;;;6.90;99.90;;;;;;5013913;28;20489;-68
2023/02/20 07:53:57;;;;;;;8.98;2.92;;;7.00;99.90;;;;;;5016044;28;20065;-77
2023/02/20 07:56:23;;;;;;;11.90;4.03;;;7.00;99.90;;;;;;5022226;28;20057;-68
2023/02/20 07:58:49;;;;;;;10.80;3.90;;;7.20;99.90;;;;;;5015758;28;20037;-68
2023/02/20 08:01:15;;;;;;;10.13;3.60;;;7.20;99.90;;;;;;5029517;28;20087;-68
2023/02/20 08:03:41;;;;;;;10.93;4.20;;;7.30;99.90;;;;;;5025367;28;20364;-72
2023/02/20 08:06:07;;;;;;;12.60;3.17;;;7.40;99.90;;;;;;5014423;28;20037;-69
2023/02/20 08:08:32;;;;;;;11.93;3.78;;;7.50;99.90;;;;;;5020384;28;20064;-70
2023/02/20 08:10:58;;;;;;;6.05;2.60;;;7.50;99.90;;;;;;5021077;28;20030;-69
2023/02/20 08:13:24;;;;;;;12.73;3.40;;;7.60;99.90;;;;;;5013402;28;20041;-69
2023/02/20 08:15:50;;;;;;;11.65;3.78;;;7.70;99.90;;;;;;5021419;28;20109;-69
2023/02/20 08:18:16;;;;;;;11.32;3.00;;;7.80;99.90;;;;;;5016719;28;20117;-69
2023/02/20 08:20:42;;;;;;;6.13;2.50;;;7.90;99.90;;;;;;5021020;28;20057;-71
2023/02/20 08:23:19;;;;;;;10.38;3.40;;;8.00;99.90;;;;;;5017816;28;20501;-69
2023/02/20 08:25:45;;;;;;;8.82;2.90;;;8.10;99.90;;;;;;5018743;28;20402;-69
2023/02/20 08:28:11;;;;;;;10.15;2.88;;;8.10;99.90;;;;;;5013822;28;20117;-69
2023/02/20 08:30:37;;;;;;;5.75;2.85;;;8.20;99.90;;;;;;5015976;28;20481;-68
2023/02/20 08:33:05;;;;;;;10.88;4.82;;;8.20;99.90;;;;;;5024117;28;20029;-71
2023/02/20 08:35:33;;;;;;;13.70;2.78;;;8.30;99.90;;;;;;5006979;28;20030;-69
2023/02/20 08:38:03;;;;;;;4.35;2.50;;;8.40;99.90;;;;;;5022285;28;20648;-68
2023/02/20 08:40:29;;;;;;;7.15;2.78;;;8.50;99.90;;;;;;4995042;28;20029;-68
2023/02/20 08:42:54;;;;;;;12.48;3.17;;;8.60;99.90;;;;;;5026258;28;20418;-67
2023/02/20 08:45:21;;;;;;;10.48;2.72;;;8.60;99.90;;;;;;5016677;28;20033;-68
2023/02/20 08:47:47;;;;;;;7.95;2.85;;;8.70;99.90;;;;;;5023710;28;20037;-68
2023/02/20 08:50:13;;;;;;;8.68;2.60;;;8.80;99.90;;;;;;5025396;28;20026;-68
2023/02/20 08:52:41;;;;;;;7.45;2.65;;;8.90;99.90;;;;;;5014066;28;20109;-71
2023/02/20 08:55:07;;;;;;;9.32;2.67;;;8.90;99.90;;;;;;5015252;28;20033;-68
2023/02/20 08:57:33;;;;;;;5.75;2.47;;;9.00;99.90;;;;;;5012017;28;20378;-69
2023/02/20 08:59:58;;;;;;;9.00;3.08;;;9.10;99.90;;;;;;5021180;28;20471;-70
2023/02/20 09:02:27;;;;;;;8.65;2.55;;;9.10;99.90;;;;;;5012378;28;20076;-68
2023/02/20 09:04:53;;;;;;;8.52;2.42;;;9.20;99.90;;;;;;5010436;28;20029;-68
2023/02/20 09:07:19;;;;;;;10.00;2.78;;;9.40;99.90;;;;;;5015234;28;20041;-68
2023/02/20 09:09:45;;;;;;;11.55;2.67;;;9.40;99.90;;;;;;5025127;28;20512;-69
2023/02/20 09:12:11;;;;;;;5.20;2.30;;;9.50;99.90;;;;;;5021918;28;20040;-69
2023/02/20 09:14:37;;;;;;;5.28;2.70;;;9.60;99.90;;;;;;5017733;28;20108;-68
2023/02/20 09:17:04;;;;;;;7.22;2.17;;;9.60;99.90;;;;;;5013695;28;20080;-69
2023/02/20 09:19:30;;;;;;;6.97;2.35;;;9.70;99.90;;;;;;5013676;28;20029;-68
2023/02/20 09:21:56;;;;;;;6.40;2.25;;;9.80;99.90;;;;;;5019086;28;20018;-68
2023/02/20 09:24:21;;;;;;;6.85;2.30;;;9.90;99.90;;;;;;5016865;28;20481;-70
2023/02/20 09:26:47;;;;;;;4.90;2.13;;;10.00;99.90;;;;;;5021712;28;20025;-68
2023/02/20 09:29:12;;;;;;;11.15;1.98;;;10.10;99.90;;;;;;5018800;28;20459;-69
2023/02/20 09:31:38;;;;;;;5.55;2.10;;;10.30;99.90;;;;;;5016136;28;20108;-71
2023/02/20 09:34:04;;;;;;;7.03;1.73;;;10.40;99.90;;;;;;5019343;28;20068;-70
2023/02/20 09:36:29;;;;;;;5.75;2.00;;;10.50;99.90;;;;;;5016598;28;20454;-69
2023/02/20 09:38:55;;;;;;;7.80;2.22;;;10.60;99.90;;;;;;5010752;28;20038;-69
2023/02/20 09:41:39;;;;;;;5.47;2.17;;;10.70;99.90;;;;;;5021401;28;20037;-68
2023/02/20 09:44:26;;;;;;;5.55;1.85;;;11.10;99.90;;;;;;5025158;28;20478;-68
2023/02/20 09:46:55;;;;;;;6.32;2.20;;;11.20;99.90;;;;;;5025194;28;20485;-69
2023/02/20 09:49:28;;;;;;;11.20;2.22;;;11.40;99.90;;;;;;5010327;28;20042;-69
2023/02/20 09:51:58;;;;;;;4.82;2.00;;;11.60;99.90;;;;;;5015611;28;20179;-69
2023/02/20 09:54:26;;;;;;;7.10;2.10;;;11.80;99.90;;;;;;5021813;28;20076;-69
2023/02/20 09:56:56;;;;;;;7.13;2.15;;;12.00;99.90;;;;;;5021430;28;20037;-68
2023/02/20 09:59:33;;;;;;;7.83;1.60;;;12.00;99.90;;;;;;5014816;28;20117;-68
2023/02/20 10:02:31;;;;;;;5.22;1.58;;;12.20;99.90;;;;;;5019153;28;20261;-69
2023/02/20 10:05:03;;;;;;;7.20;1.70;;;12.30;99.90;;;;;;4913582;28;20032;-70
2023/02/20 10:07:34;;;;;;;6.35;1.88;;;12.30;99.90;;;;;;5026541;28;20137;-70
2023/02/20 10:10:16;;;;;;;4.95;1.60;;;12.40;99.90;;;;;;5025322;28;20037;-69
2023/02/20 10:13:01;;;;;;;4.47;1.63;;;12.40;99.90;;;;;;5022138;28;20048;-72
2023/02/20 10:15:52;;;;;;;4.88;1.75;;;12.40;99.90;;;;;;5011391;28;20053;-69
2023/02/20 10:18:39;;;;;;;5.25;2.03;;;12.30;99.90;;;;;;5021547;28;20509;-70
2023/02/20 10:21:19;;;;;;;5.93;1.80;;;12.20;99.90;;;;;;5016981;28;20047;-70
2023/02/20 10:23:50;;;;;;;4.60;1.02;;;12.10;99.90;;;;;;5017032;28;20025;-69
2023/02/20 10:26:27;;;;;;;7.63;2.40;;;12.10;99.90;;;;;;5024149;28;20071;-68
2023/02/20 10:28:54;;;;;;;3.75;1.33;;;12.00;99.90;;;;;;5014314;28;20041;-69
2023/02/20 10:31:35;;;;;;;5.90;1.92;;;12.00;99.90;;;;;;5018230;28;20033;-70
2023/02/20 10:34:09;;;;;;;8.90;2.05;;;12.00;99.90;;;;;;5016383;28;20084;-70
2023/02/20 10:36:42;;;;;;;12.18;1.92;;;12.00;99.90;;;;;;5015967;28;20059;-70
2023/02/20 10:39:11;;;;;;;6.18;1.80;;;12.00;99.90;;;;;;5022650;28;20075;-69
2023/02/20 10:42:08;;;;;;;7.88;2.00;;;12.00;99.90;;;;;;5015387;28;20034;-68
2023/02/20 10:44:52;;;;;;;5.93;1.67;;;12.10;99.90;;;;;;5020288;28;20549;-71
2023/02/20 10:47:31;;;;;;;13.45;1.80;;;12.10;99.90;;;;;;5018430;28;20026;-70
2023/02/20 10:49:58;;;;;;;4.65;1.63;;;12.20;99.90;;;;;;5025348;28;20080;-70
2023/02/20 10:52:45;;;;;;;9.77;2.22;;;12.30;99.90;;;;;;5019764;28;20113;-70
2023/02/20 10:55:24;;;;;;;7.65;1.85;;;12.30;99.90;;;;;;5015759;28;20030;-70
2023/02/20 10:57:55;;;;;;;5.68;1.80;;;12.30;99.90;;;;;;5020259;28;20482;-70
2023/02/20 11:00:44;;;;;;;10.05;1.90;;;12.30;99.90;;;;;;5013897;28;20421;-70
2023/02/20 11:03:25;;;;;;;8.73;1.63;;;12.30;99.90;;;;;;5018550;28;20046;-70
2023/02/20 11:05:55;;;;;;;5.75;1.85;;;12.50;99.90;;;;;;5025420;28;20488;-70
2023/02/20 11:08:21;;;;;;;6.38;1.98;;;12.50;99.90;;;;;;5018921;28;20037;-70
2023/02/20 11:10:50;;;;;;;4.15;1.50;;;12.50;99.90;;;;;;5020418;28;20034;-70
2023/02/20 11:13:21;;;;;;;12.25;1.77;;;12.60;99.90;;;;;;5024104;28;20054;-69
2023/02/20 11:15:52;;;;;;;8.27;1.73;;;12.70;99.90;;;;;;5021187;28;20524;-69
2023/02/20 11:18:34;;;;;;;9.32;2.22;;;12.80;99.90;;;;;;5022773;28;20040;-69
2023/02/20 11:21:00;;;;;;;3.03;1.40;;;12.90;99.90;;;;;;5021485;28;20080;-69
2023/02/20 11:23:46;;;;;;;7.85;1.70;;;12.90;99.90;;;;;;5022711;28;20415;-69
2023/02/20 11:26:33;;;;;;;6.90;1.40;;;13.00;99.90;;;;;;5022037;28;20091;-70
2023/02/20 11:29:20;;;;;;;5.38;1.52;;;13.10;99.90;;;;;;5016665;28;20049;-70
2023/02/20 11:31:46;;;;;;;8.50;1.92;;;13.30;99.90;;;;;;5016551;28;20030;-69
2023/02/20 11:34:20;;;;;;;3.72;1.65;;;13.40;99.90;;;;;;5020819;28;20110;-69
2023/02/20 11:36:55;;;;;;;3.35;1.10;;;13.40;99.90;;;;;;5021116;28;20148;-69
2023/02/20 11:39:27;;;;;;;3.20;1.02;;;13.40;99.50;;;;;;5013198;28;20091;-69
2023/02/20 11:42:14;;;;;;;8.68;1.60;;;13.50;99.40;;;;;;5016885;28;20041;-70
2023/02/20 11:44:39;;;;;;;3.70;1.27;;;13.60;99.20;;;;;;5012666;28;20137;-72
2023/02/20 11:47:23;;;;;;;3.95;1.60;;;13.50;99.20;;;;;;5016078;28;20116;-69
2023/02/20 11:50:06;;;;;;;5.88;1.63;;;13.70;98.80;;;;;;5021285;28;20038;-69
2023/02/20 11:52:32;;;;;;;7.30;1.60;;;13.80;99.40;;;;;;5022632;28;20025;-70
2023/02/20 11:55:19;;;;;;;6.85;1.80;;;13.80;99.60;;;;;;5025783;28;20861;-69
2023/02/20 11:57:46;;;;;;;3.80;1.48;;;13.80;99.50;;;;;;5019422;28;20486;-70
2023/02/20 12:00:18;;;;;;;17.33;1.83;;;13.90;99.60;;;;;;5004996;28;20037;-70
2023/02/20 12:03:16;;;;;;;5.78;1.73;;;13.90;99.40;;;;;;5027680;28;20392;-70
2023/02/20 12:05:48;;;;;;;21.42;2.55;;;14.00;98.80;;;;;;5019218;28;20030;-71
2023/02/20 12:08:42;;;;;;;12.23;1.90;;;14.10;98.60;;;;;;5013232;28;20076;-68
2023/02/20 12:11:13;;;;;;;7.55;1.45;;;14.20;98.70;;;;;;5018929;28;20025;-68
2023/02/20 12:13:59;;;;;;;7.00;1.33;;;14.20;98.20;;;;;;5014484;28;20045;-73
2023/02/20 12:17:03;;;;;;;9.40;1.52;;;14.20;98.00;;;;;;5024827;28;20125;-70
2023/02/20 12:19:55;;;;;;;12.65;1.77;;;14.30;97.60;;;;;;5015494;28;20376;-68
2023/02/20 12:22:36;;;;;;;10.00;1.83;;;14.40;97.60;;;;;;5027016;28;20030;-70
2023/02/20 12:25:25;;;;;;;7.35;1.30;;;14.50;97.50;;;;;;5018019;28;20052;-69
2023/02/20 12:28:10;;;;;;;5.63;1.77;;;14.70;97.20;;;;;;5025526;28;20021;-70
2023/02/20 12:30:55;;;;;;;7.95;1.70;;;14.80;96.80;;;;;;5008756;28;20034;-70
2023/02/20 12:33:54;;;;;;;8.43;1.70;;;14.80;96.60;;;;;;5019129;28;20044;-69
2023/02/20 12:36:19;;;;;;;9.18;1.23;;;15.00;96.20;;;;;;5022536;28;20033;-70
2023/02/20 12:38:56;;;;;;;3.38;1.02;;;15.20;95.60;;;;;;5026179;28;20419;-70
2023/02/20 12:41:32;;;;;;;8.38;1.48;;;15.60;95.20;;;;;;5022518;28;20510;-69
2023/02/20 12:44:16;;;;;;;5.20;1.40;;;16.00;94.70;;;;;;5024104;28;20044;-69
2023/02/20 12:47:01;;;;;;;12.10;1.80;;;16.50;93.50;;;;;;5021571;28;20029;-73
2023/02/20 12:49:53;;;;;;;5.63;1.60;;;17.00;91.90;;;;;;5021202;28;20081;-68
2023/02/20 12:52:30;;;;;;;3.47;1.08;;;17.50;92.40;;;;;;5012011;28;20034;-69
2023/02/20 12:55:20;;;;;;;2.10;1.02;;;17.80;87.80;;;;;;5022972;28;20040;-70
2023/02/20 12:58:11;;;;;;;;;;;18.20;84.70;;;;;;5003026;28;20395;-68
2023/02/20 13:00:45;;;;;;;4.38;1.65;;;18.60;81.90;;;;;;5003772;28;19916;-69
2023/02/20 13:03:17;;;;;;;5.05;1.20;;;19.00;79.90;;;;;;5016943;28;20053;-69
2023/02/20 13:05:45;;;;;;;7.15;1.17;;;19.30;78.70;;;;;;5027944;28;20022;-69
2023/02/20 13:08:30;;;;;;;4.45;1.17;;;19.40;77.40;;;;;;5015792;28;20053;-69
2023/02/20 13:10:57;;;;;;;3.15;1.33;;;19.50;75.90;;;;;;5014113;28;20044;-70
2023/02/20 13:14:02;;;;;;;4.68;1.40;;;19.80;75.10;;;;;;5026287;28;20053;-69
2023/02/20 13:16:50;;;;;;;4.25;1.20;;;20.30;73.30;;;;;;5007519;28;20434;-69
2023/02/20 13:19:20;;;;;;;6.38;1.15;;;20.20;72.50;;;;;;5016819;28;20030;-68
2023/02/20 13:21:46;;;;;;;4.23;0.90;;;20.30;70.00;;;;;;5017721;28;20550;-69
2023/02/20 13:24:26;;;;;;;3.83;1.10;;;20.20;70.70;;;;;;5024979;28;20097;-69
2023/02/20 13:26:57;;;;;;;3.63;1.10;;;20.30;70.50;;;;;;5010683;28;20136;-69
2023/02/20 13:29:27;;;;;;;1.50;0.75;;;20.40;68.50;;;;;;5026745;28;20045;-68